Time;durP1;ratioP1;P1;durP2;ratioP2;P2;SDS_P1;SDS_P2;PMS_P1;PMS_P2;Temp;Humidity;BMP_temperature;BMP_pressure;BME280_temperature;BME280_humidity;BME280_pressure;Samples;Min_cycle;Max_cycle;Signal;HPM_P1;HPM_P2
2024/01/17 00:00:00;;;;;;;17.93;13.43;;;0.70;99.90;;;;;;5097437;28;20419;-44
2024/01/17 00:02:25;;;;;;;19.83;14.00;;;0.30;1.00;;;;;;5097781;28;20716;-40
2024/01/17 00:04:52;;;;;;;18.57;13.93;;;0.00;1.00;;;;;;5096589;28;20172;-43
2024/01/17 00:07:18;;;;;;;19.27;13.37;;;-0.30;99.90;;;;;;5098000;28;20247;-41
2024/01/17 00:09:43;;;;;;;18.03;14.73;;;-0.50;1.00;;;;;;5098336;28;20434;-44
2024/01/17 00:12:09;;;;;;;19.37;14.03;;;-0.70;19.50;;;;;;5098303;28;20171;-40
2024/01/17 00:14:35;;;;;;;19.67;14.63;;;-0.80;99.90;;;;;;5097685;28;20741;-42
2024/01/17 00:17:00;;;;;;;22.27;16.93;;;-1.00;1.00;;;;;;5098155;28;20245;-43
2024/01/17 00:19:26;;;;;;;20.87;14.57;;;-1.00;1.00;;;;;;5097056;28;20185;-43
2024/01/17 00:21:51;;;;;;;21.70;15.87;;;-1.20;71.40;;;;;;5097179;28;20310;-42
2024/01/17 00:24:17;;;;;;;17.70;14.40;;;-1.20;99.90;;;;;;5097142;28;20183;-42
2024/01/17 00:26:42;;;;;;;21.83;15.30;;;-1.30;99.90;;;;;;5097564;28;20287;-44
2024/01/17 00:29:08;;;;;;;20.93;14.90;;;-1.30;99.90;;;;;;5097141;28;20181;-42
2024/01/17 00:31:34;;;;;;;19.77;14.40;;;-1.40;99.90;;;;;;5097616;28;20322;-41
2024/01/17 00:34:00;;;;;;;18.00;14.50;;;-1.40;1.00;;;;;;5098292;28;20431;-45
2024/01/17 00:36:25;;;;;;;21.50;14.47;;;-1.50;1.00;;;;;;5097867;28;20180;-41
2024/01/17 00:38:51;;;;;;;19.90;14.77;;;-1.60;1.00;;;;;;5080578;28;20430;-47
2024/01/17 00:41:18;;;;;;;20.87;14.00;;;-1.60;58.70;;;;;;5098308;28;20184;-42
2024/01/17 00:43:44;;;;;;;18.93;14.17;;;-1.60;99.90;;;;;;5097954;28;20578;-39
2024/01/17 00:46:10;;;;;;;21.13;14.73;;;-1.60;99.90;;;;;;5080129;28;20520;-40
2024/01/17 00:48:36;;;;;;;19.67;14.10;;;-1.60;99.90;;;;;;5079928;28;20169;-41
2024/01/17 00:51:01;;;;;;;19.60;14.43;;;-1.60;99.90;;;;;;5098321;28;20435;-43
2024/01/17 00:53:27;;;;;;;18.13;14.30;;;-1.60;99.90;;;;;;5097773;28;20397;-41
2024/01/17 00:55:52;;;;;;;19.70;14.20;;;-1.60;99.90;;;;;;5098171;28;20303;-41
2024/01/17 00:58:18;;;;;;;19.13;13.77;;;-1.60;99.90;;;;;;5079168;28;20571;-42
2024/01/17 01:00:44;;;;;;;17.40;13.33;;;-1.60;99.90;;;;;;5079649;28;20176;-43
2024/01/17 01:03:09;;;;;;;21.40;14.50;;;-1.50;99.90;;;;;;5079969;28;20176;-41
2024/01/17 01:05:35;;;;;;;18.63;13.50;;;-1.50;99.90;;;;;;5097738;28;20204;-42
2024/01/17 01:08:00;;;;;;;19.63;12.80;;;-1.50;99.90;;;;;;5079835;28;20188;-44
2024/01/17 01:10:26;;;;;;;17.93;14.43;;;-1.50;99.90;;;;;;5097593;28;20179;-40
2024/01/17 01:12:51;;;;;;;15.97;13.10;;;-1.40;99.90;;;;;;5096938;28;20176;-44
2024/01/17 01:15:17;;;;;;;16.60;12.57;;;-1.40;14.30;;;;;;5097777;28;20282;-43
2024/01/17 01:17:42;;;;;;;18.90;14.00;;;-1.40;81.00;;;;;;5097307;28;20267;-41
2024/01/17 01:20:09;;;;;;;15.90;13.23;;;-1.40;95.00;;;;;;5079300;28;20540;-45
2024/01/17 01:22:34;;;;;;;19.90;12.60;;;-1.30;99.90;;;;;;5079327;28;20255;-43
2024/01/17 01:25:00;;;;;;;19.37;14.23;;;-1.30;99.90;;;;;;5096597;28;20505;-42
2024/01/17 01:27:26;;;;;;;18.30;13.37;;;-1.30;86.10;;;;;;5096912;28;20277;-40
2024/01/17 01:29:51;;;;;;;18.50;13.50;;;-1.40;43.40;;;;;;5097258;28;20438;-41
2024/01/17 01:32:17;;;;;;;16.73;12.97;;;-1.40;99.90;;;;;;5096227;28;20199;-42
2024/01/17 01:34:42;;;;;;;16.77;12.60;;;-1.40;99.90;;;;;;5096831;28;20207;-43
2024/01/17 01:37:08;;;;;;;19.17;13.57;;;-1.40;1.00;;;;;;5097067;28;20181;-40
2024/01/17 01:39:33;;;;;;;16.20;12.47;;;-1.40;1.00;;;;;;5097015;28;20482;-42
2024/01/17 01:41:59;;;;;;;20.70;13.50;;;-1.40;1.00;;;;;;5097284;28;20287;-39
2024/01/17 01:44:24;;;;;;;19.27;12.83;;;-1.30;1.00;;;;;;5097107;28;20198;-43
2024/01/17 01:46:50;;;;;;;14.90;12.83;;;-1.20;1.00;;;;;;5078588;28;20231;-42
2024/01/17 01:49:16;;;;;;;15.23;11.80;;;-1.20;1.00;;;;;;5097014;28;20185;-43
2024/01/17 01:51:44;;;;;;;20.27;13.90;;;-1.20;99.90;;;;;;5096958;28;20875;-40
2024/01/17 01:54:12;;;;;;;14.80;11.77;;;-1.20;99.90;;;;;;5079073;28;20528;-41
2024/01/17 01:56:37;;;;;;;17.33;13.17;;;-1.20;99.90;;;;;;5079155;28;20761;-40
2024/01/17 01:59:03;;;;;;;18.30;12.70;;;-1.20;99.90;;;;;;5079021;28;20440;-41
2024/01/17 02:01:29;;;;;;;15.90;12.20;;;-1.10;99.90;;;;;;5078918;28;20188;-41
2024/01/17 02:03:55;;;;;;;14.87;11.50;;;-1.20;99.90;;;;;;5078236;28;20509;-41
2024/01/17 02:06:22;;;;;;;17.37;13.57;;;-1.10;99.90;;;;;;5095305;28;20462;-43
2024/01/17 02:08:50;;;;;;;17.70;13.00;;;-1.10;1.00;;;;;;5094773;28;20452;-44
2024/01/17 02:11:17;;;;;;;16.80;12.43;;;-1.00;1.00;;;;;;5094877;28;20771;-43
2024/01/17 02:13:43;;;;;;;15.50;10.97;;;-1.00;1.00;;;;;;5095458;28;20525;-42
2024/01/17 02:16:09;;;;;;;15.57;12.83;;;-1.10;1.00;;;;;;5095470;28;20433;-43
2024/01/17 02:18:35;;;;;;;14.77;11.87;;;-1.10;1.00;;;;;;5095843;28;20424;-41
2024/01/17 02:21:00;;;;;;;20.00;12.70;;;-1.00;37.30;;;;;;5078127;28;20253;-43
2024/01/17 02:23:27;;;;;;;16.00;11.83;;;-1.00;1.00;;;;;;5096142;28;20228;-44
2024/01/17 02:25:55;;;;;;;18.27;13.50;;;-1.00;1.00;;;;;;5095652;28;20223;-44
2024/01/17 02:28:21;;;;;;;17.23;11.43;;;-1.00;1.00;;;;;;5096383;28;20509;-42
2024/01/17 02:30:46;;;;;;;17.97;12.93;;;-1.00;66.70;;;;;;5097015;28;20410;-44
2024/01/17 02:33:13;;;;;;;11.30;8.13;;;-1.00;99.90;;;;;;5096393;28;20421;-48
2024/01/17 02:35:39;;;;;;;16.50;11.17;;;-0.70;99.90;;;;;;5095759;28;20554;-45
2024/01/17 02:38:05;;;;;;;21.73;13.97;;;0.30;1.00;;;;;;5078022;28;20438;-46
2024/01/17 02:40:30;;;;;;;18.83;14.80;;;1.40;1.00;;;;;;5096690;28;20931;-41
2024/01/17 02:42:56;;;;;;;17.93;15.00;;;2.00;1.00;;;;;;5096963;28;20184;-42
2024/01/17 02:45:21;;;;;;;19.23;15.50;;;2.00;1.00;;;;;;5099367;28;20168;-42
2024/01/17 02:47:47;;;;;;;20.00;14.50;;;1.80;1.00;;;;;;5100161;28;20554;-47
2024/01/17 02:50:15;;;;;;;16.40;12.97;;;1.60;99.90;;;;;;5100276;28;20419;-46
2024/01/17 02:52:41;;;;;;;18.70;13.77;;;1.30;19.70;;;;;;5099835;28;20208;-44
2024/01/17 02:55:08;;;;;;;15.40;13.03;;;1.10;1.00;;;;;;5081334;28;20527;-42
2024/01/17 02:57:34;;;;;;;15.20;12.40;;;1.00;78.00;;;;;;5099440;28;20497;-43
2024/01/17 02:59:59;;;;;;;15.77;13.10;;;0.80;1.00;;;;;;5099275;28;20525;-43
2024/01/17 03:02:25;;;;;;;17.97;12.80;;;0.70;1.00;;;;;;5081360;28;20280;-41
2024/01/17 03:04:51;;;;;;;13.07;11.00;;;0.70;1.00;;;;;;5099530;28;20184;-41
2024/01/17 03:07:17;;;;;;;16.57;13.17;;;0.60;1.00;;;;;;5099509;28;20560;-42
2024/01/17 03:09:42;;;;;;;15.27;12.13;;;0.50;4.30;;;;;;5099848;28;20165;-42
2024/01/17 03:12:08;;;;;;;16.97;13.13;;;0.40;99.90;;;;;;5099682;28;20460;-41
2024/01/17 03:14:33;;;;;;;18.17;12.60;;;0.30;99.90;;;;;;5099505;28;20172;-41
2024/01/17 03:16:59;;;;;;;18.53;13.30;;;0.20;99.90;;;;;;5099382;28;20267;-44
2024/01/17 03:19:24;;;;;;;18.43;14.67;;;0.20;1.00;;;;;;5099245;28;20211;-45
2024/01/17 03:21:50;;;;;;;18.03;13.67;;;0.20;1.00;;;;;;5099133;28;20602;-41
2024/01/17 03:24:16;;;;;;;17.57;13.10;;;0.10;1.00;;;;;;5097274;28;20197;-43
2024/01/17 03:26:42;;;;;;;20.20;13.83;;;0.00;1.00;;;;;;5098669;28;20295;-52
2024/01/17 03:29:07;;;;;;;17.50;14.37;;;-0.10;31.70;;;;;;5098334;28;20422;-44
2024/01/17 03:31:33;;;;;;;15.80;12.50;;;-0.10;99.90;;;;;;5098952;28;20207;-45
2024/01/17 03:33:58;;;;;;;16.30;14.00;;;-0.10;99.90;;;;;;5080124;28;20258;-42
2024/01/17 03:36:24;;;;;;;14.57;12.60;;;-0.20;99.90;;;;;;5080986;28;20176;-43
2024/01/17 03:38:49;;;;;;;17.00;14.37;;;-0.20;99.90;;;;;;5099039;28;20181;-41
2024/01/17 03:41:15;;;;;;;17.70;13.97;;;-0.10;99.90;;;;;;5097751;28;20249;-44
2024/01/17 03:43:41;;;;;;;17.43;13.60;;;-0.10;99.90;;;;;;5096935;28;20559;-43
2024/01/17 03:46:06;;;;;;;16.30;12.90;;;-0.10;99.90;;;;;;5097500;28;20208;-41
2024/01/17 03:48:33;;;;;;;17.83;13.63;;;-0.10;99.90;;;;;;5097764;28;20517;-41
2024/01/17 03:50:58;;;;;;;18.70;14.30;;;-0.10;99.90;;;;;;5097938;28;20252;-46
2024/01/17 03:53:24;;;;;;;17.87;14.47;;;-0.10;99.90;;;;;;5079687;28;20450;-41
2024/01/17 03:55:49;;;;;;;18.50;13.77;;;0.00;99.90;;;;;;5096735;28;20188;-46
2024/01/17 03:58:15;;;;;;;16.60;14.23;;;0.00;99.90;;;;;;5097819;28;20180;-43
2024/01/17 04:00:40;;;;;;;21.00;14.50;;;0.10;99.90;;;;;;5098481;28;20167;-41
2024/01/17 04:03:13;;;;;;;18.53;13.87;;;0.10;99.90;;;;;;5080365;28;20198;-41
2024/01/17 04:05:40;;;;;;;20.73;14.57;;;0.20;99.90;;;;;;5080041;28;20201;-42
2024/01/17 04:08:05;;;;;;;20.30;14.90;;;0.20;99.90;;;;;;5078380;28;20723;-42
2024/01/17 04:10:31;;;;;;;18.93;14.00;;;0.20;99.90;;;;;;5096210;28;20436;-44
2024/01/17 04:12:57;;;;;;;18.20;14.73;;;0.20;99.90;;;;;;5097559;28;20690;-43
2024/01/17 04:15:22;;;;;;;19.83;14.17;;;0.30;99.90;;;;;;5097890;28;20562;-41
2024/01/17 04:17:48;;;;;;;17.70;14.90;;;0.30;99.90;;;;;;5098434;28;20763;-43
2024/01/17 04:20:14;;;;;;;15.57;12.80;;;0.40;99.90;;;;;;5080076;28;20169;-43
2024/01/17 04:22:39;;;;;;;16.70;13.20;;;0.40;99.90;;;;;;5084145;28;20590;-42
2024/01/17 04:25:05;;;;;;;18.40;13.73;;;0.40;99.90;;;;;;5077503;28;20497;-43
2024/01/17 04:27:31;;;;;;;18.23;14.63;;;0.40;99.90;;;;;;5078091;28;20189;-42
2024/01/17 04:30:00;;;;;;;19.63;14.10;;;0.30;99.90;;;;;;5078063;28;20419;-44
2024/01/17 04:32:26;;;;;;;19.87;14.97;;;0.30;99.90;;;;;;5075988;28;20474;-42
2024/01/17 04:34:52;;;;;;;19.37;15.33;;;0.30;99.90;;;;;;5074867;28;20428;-48
2024/01/17 04:37:18;;;;;;;23.13;16.47;;;0.30;99.90;;;;;;5074072;28;20513;-41
2024/01/17 04:39:43;;;;;;;19.40;14.87;;;0.20;99.90;;;;;;5055192;28;20443;-44
2024/01/17 04:42:09;;;;;;;18.13;14.20;;;0.30;99.90;;;;;;5073212;28;20169;-44
2024/01/17 04:44:35;;;;;;;20.23;15.10;;;0.30;99.90;;;;;;5074556;28;20402;-45
2024/01/17 04:47:00;;;;;;;19.23;14.93;;;0.30;1.00;;;;;;5056355;28;20217;-42
2024/01/17 04:49:27;;;;;;;17.50;14.37;;;0.40;1.00;;;;;;5075462;28;20438;-45
2024/01/17 04:51:53;;;;;;;20.40;15.07;;;0.50;1.00;;;;;;5075373;28;20247;-44
2024/01/17 04:54:20;;;;;;;19.10;13.73;;;0.50;1.00;;;;;;5058257;28;20510;-44
2024/01/17 04:56:45;;;;;;;18.20;13.70;;;0.60;1.00;;;;;;5074928;28;20434;-44
2024/01/17 04:59:11;;;;;;;16.53;13.63;;;0.60;1.00;;;;;;5074815;28;20662;-43
2024/01/17 05:01:36;;;;;;;20.07;14.43;;;0.70;1.00;;;;;;5077060;28;20196;-45
2024/01/17 05:04:02;;;;;;;23.10;15.70;;;0.70;1.00;;;;;;5076505;28;20193;-42
2024/01/17 05:06:29;;;;;;;18.90;14.83;;;0.80;99.90;;;;;;5058723;28;20196;-43
2024/01/17 05:08:56;;;;;;;18.97;14.10;;;0.80;99.90;;;;;;5076806;28;20239;-44
2024/01/17 05:11:22;;;;;;;16.83;13.30;;;0.80;99.90;;;;;;5074998;28;20411;-43
2024/01/17 05:13:48;;;;;;;18.60;13.80;;;0.90;99.90;;;;;;5075641;28;20423;-42
2024/01/17 05:16:14;;;;;;;19.90;14.67;;;0.90;99.90;;;;;;5058062;28;20700;-44
2024/01/17 05:18:39;;;;;;;16.33;13.17;;;0.90;99.90;;;;;;5055986;28;20415;-44
2024/01/17 05:21:05;;;;;;;20.47;15.23;;;1.00;99.90;;;;;;5074544;28;20188;-43
2024/01/17 05:23:31;;;;;;;19.57;14.67;;;1.00;99.90;;;;;;5075915;28;20436;-43
2024/01/17 05:25:56;;;;;;;15.37;13.13;;;0.90;99.90;;;;;;5094199;28;20302;-43
2024/01/17 05:28:22;;;;;;;17.53;14.63;;;0.90;99.90;;;;;;5093979;28;20183;-42
2024/01/17 05:30:48;;;;;;;18.60;14.43;;;0.90;99.90;;;;;;5095195;28;20458;-41
2024/01/17 05:33:13;;;;;;;17.10;13.93;;;0.90;1.00;;;;;;5095250;28;20490;-47
2024/01/17 05:35:39;;;;;;;15.97;13.83;;;0.90;1.00;;;;;;5095957;28;20208;-46
2024/01/17 05:38:05;;;;;;;18.30;14.57;;;0.90;1.00;;;;;;5095405;28;20192;-44
2024/01/17 05:40:30;;;;;;;18.47;15.30;;;1.00;1.00;;;;;;5095498;28;20172;-45
2024/01/17 05:42:56;;;;;;;16.90;14.70;;;1.00;1.00;;;;;;5094515;28;20172;-43
2024/01/17 05:45:21;;;;;;;20.17;16.10;;;1.10;1.00;;;;;;5095089;28;20161;-45
2024/01/17 05:47:47;;;;;;;19.43;14.50;;;1.10;1.00;;;;;;5078025;28;20184;-41
2024/01/17 05:50:13;;;;;;;19.60;15.77;;;1.10;1.00;;;;;;5094697;28;20311;-41
2024/01/17 05:52:39;;;;;;;20.17;15.23;;;1.20;1.00;;;;;;5094518;28;20183;-41
2024/01/17 05:55:07;;;;;;;17.60;15.10;;;1.20;1.00;;;;;;5094233;28;20543;-42
2024/01/17 05:57:32;;;;;;;23.00;17.67;;;1.20;1.00;;;;;;5076906;28;20515;-42
2024/01/17 05:59:58;;;;;;;19.40;15.40;;;1.20;99.90;;;;;;5094704;28;20560;-41
2024/01/17 06:02:23;;;;;;;19.87;17.20;;;1.20;99.90;;;;;;5095656;28;20177;-42
2024/01/17 06:04:49;;;;;;;19.77;14.40;;;1.20;99.90;;;;;;5095660;28;20184;-43
2024/01/17 06:07:15;;;;;;;22.73;15.60;;;1.20;99.90;;;;;;5077633;28;20212;-43
2024/01/17 06:09:43;;;;;;;19.63;16.17;;;1.20;99.90;;;;;;5092875;28;20168;-41
2024/01/17 06:12:11;;;;;;;22.53;15.30;;;1.20;99.90;;;;;;5093809;28;20418;-42
2024/01/17 06:14:39;;;;;;;19.50;16.30;;;1.20;99.90;;;;;;5076320;28;20524;-43
2024/01/17 06:17:05;;;;;;;25.10;17.10;;;1.20;99.90;;;;;;5094803;28;20524;-43
2024/01/17 06:19:31;;;;;;;23.90;17.57;;;1.10;99.90;;;;;;5098004;28;20521;-41
2024/01/17 06:22:01;;;;;;;24.97;18.20;;;1.10;99.90;;;;;;5098781;28;20223;-44
2024/01/17 06:24:33;;;;;;;21.67;16.60;;;1.10;1.00;;;;;;5098562;28;20180;-44
2024/01/17 06:26:58;;;;;;;22.47;18.20;;;1.20;1.00;;;;;;5078432;28;20473;-43
2024/01/17 06:29:25;;;;;;;21.57;16.83;;;1.20;1.00;;;;;;5098336;28;20168;-44
2024/01/17 06:31:51;;;;;;;20.77;16.17;;;1.20;1.00;;;;;;5098216;28;20204;-42
2024/01/17 06:34:17;;;;;;;22.27;17.40;;;1.20;1.00;;;;;;5098305;28;20426;-41
2024/01/17 06:36:42;;;;;;;23.40;17.20;;;1.20;1.00;;;;;;5099280;28;20685;-43
2024/01/17 06:39:10;;;;;;;26.77;18.77;;;1.20;1.00;;;;;;5097768;28;20458;-42
2024/01/17 06:41:36;;;;;;;24.70;18.20;;;1.30;1.00;;;;;;5098053;28;20181;-45
2024/01/17 06:44:01;;;;;;;23.87;18.37;;;1.30;1.00;;;;;;5098698;28;20494;-44
2024/01/17 06:46:27;;;;;;;25.60;19.50;;;1.30;1.00;;;;;;5097474;28;20247;-43
2024/01/17 06:48:52;;;;;;;23.80;17.93;;;1.30;1.00;;;;;;5096779;28;20172;-43
2024/01/17 06:51:18;;;;;;;23.27;17.90;;;1.30;1.00;;;;;;5095745;28;20256;-43
2024/01/17 06:53:43;;;;;;;24.03;19.70;;;1.30;1.00;;;;;;5112185;28;20219;-43
2024/01/17 06:56:09;;;;;;;25.77;19.07;;;1.40;1.00;;;;;;5117619;28;20481;-44
2024/01/17 06:58:34;;;;;;;25.23;18.77;;;1.40;1.00;;;;;;5114542;28;20232;-41
2024/01/17 07:01:00;;;;;;;24.83;18.47;;;1.40;1.00;;;;;;5115608;28;20211;-41
2024/01/17 07:03:26;;;;;;;26.03;19.23;;;1.40;1.00;;;;;;5115784;28;20172;-41
2024/01/17 07:05:51;;;;;;;27.00;18.70;;;1.40;1.00;;;;;;5116043;28;20202;-42
2024/01/17 07:08:17;;;;;;;26.93;19.20;;;1.40;1.00;;;;;;5116918;28;20207;-44
2024/01/17 07:10:42;;;;;;;24.50;17.90;;;1.30;1.00;;;;;;5116123;28;20180;-44
2024/01/17 07:13:08;;;;;;;28.80;20.00;;;1.40;1.00;;;;;;5116417;28;20541;-41
2024/01/17 07:15:33;;;;;;;28.20;20.27;;;1.40;1.00;;;;;;5113095;28;20590;-44
2024/01/17 07:17:59;;;;;;;25.20;19.77;;;1.40;1.00;;;;;;5113401;28;20174;-42
2024/01/17 07:20:24;;;;;;;25.63;17.40;;;1.40;1.00;;;;;;5115592;28;20203;-42
2024/01/17 07:22:50;;;;;;;23.73;17.83;;;1.50;1.00;;;;;;5116844;28;20242;-42
2024/01/17 07:25:16;;;;;;;22.63;17.97;;;1.50;1.00;;;;;;5115234;28;20175;-41
2024/01/17 07:27:44;;;;;;;24.83;18.00;;;1.50;1.00;;;;;;5116992;28;20199;-41
2024/01/17 07:30:11;;;;;;;24.20;17.90;;;1.50;1.00;;;;;;5115857;28;20233;-43
2024/01/17 07:32:37;;;;;;;24.77;19.13;;;1.60;1.00;;;;;;5116336;28;20827;-44
2024/01/17 07:35:03;;;;;;;25.10;17.03;;;1.70;1.00;;;;;;5115821;28;20436;-47
2024/01/17 07:37:29;;;;;;;24.60;19.10;;;1.70;1.00;;;;;;5114614;28;20186;-41
2024/01/17 07:39:54;;;;;;;22.33;17.73;;;1.70;1.00;;;;;;5113589;28;20417;-42
2024/01/17 07:42:21;;;;;;;22.77;18.50;;;1.70;1.00;;;;;;5114544;28;20178;-42
2024/01/17 07:44:48;;;;;;;26.37;19.80;;;1.70;1.00;;;;;;5117252;28;20604;-44
2024/01/17 07:47:15;;;;;;;26.43;18.83;;;1.70;1.00;;;;;;5116182;28;20467;-44
2024/01/17 07:49:40;;;;;;;22.93;18.63;;;1.80;1.00;;;;;;5116442;28;20499;-44
2024/01/17 07:52:06;;;;;;;23.77;17.10;;;1.70;1.00;;;;;;5098796;28;20631;-42
2024/01/17 07:54:35;;;;;;;25.53;18.33;;;1.70;1.00;;;;;;5114544;28;20258;-42
2024/01/17 07:57:00;;;;;;;21.67;17.33;;;1.70;1.00;;;;;;5082140;28;20564;-39
2024/01/17 07:59:27;;;;;;;25.33;19.10;;;1.80;1.00;;;;;;5116437;28;20429;-41
2024/01/17 08:01:53;;;;;;;22.43;19.13;;;1.80;1.00;;;;;;5115235;28;20183;-41
2024/01/17 08:04:19;;;;;;;25.83;19.33;;;1.80;1.00;;;;;;5116698;28;20532;-44
2024/01/17 08:06:48;;;;;;;22.70;18.40;;;1.80;1.00;;;;;;5116734;28;20465;-40
2024/01/17 08:09:26;;;;;;;24.17;18.10;;;1.80;1.00;;;;;;5097679;28;20665;-41
2024/01/17 08:11:53;;;;;;;30.40;19.10;;;1.80;1.00;;;;;;5114286;28;20421;-42
2024/01/17 08:14:19;;;;;;;27.73;19.17;;;1.80;1.00;;;;;;5097044;28;20424;-41
2024/01/17 08:16:46;;;;;;;25.83;19.30;;;1.80;1.00;;;;;;5114819;28;20421;-40
2024/01/17 08:19:12;;;;;;;23.77;19.50;;;1.80;1.00;;;;;;5115877;28;20525;-41
2024/01/17 08:21:37;;;;;;;24.43;18.97;;;1.80;1.00;;;;;;5115408;28;20561;-40
2024/01/17 08:24:04;;;;;;;22.67;17.90;;;1.90;1.00;;;;;;5115621;28;20183;-39
2024/01/17 08:26:30;;;;;;;21.50;17.83;;;1.90;1.00;;;;;;5115999;28;20304;-41
2024/01/17 08:28:56;;;;;;;32.30;18.13;;;1.90;1.00;;;;;;5117148;28;20421;-40
2024/01/17 08:31:22;;;;;;;24.27;17.50;;;2.00;1.00;;;;;;5115247;28;20544;-40
2024/01/17 08:33:49;;;;;;;20.70;16.40;;;2.00;1.00;;;;;;5115762;28;20508;-40
2024/01/17 08:36:15;;;;;;;21.43;15.73;;;2.10;1.00;;;;;;5115608;28;20439;-44
2024/01/17 08:38:41;;;;;;;21.03;17.33;;;2.20;1.00;;;;;;5097548;28;20516;-42
2024/01/17 08:41:07;;;;;;;19.60;16.70;;;2.20;1.00;;;;;;5115036;28;20186;-46
2024/01/17 08:43:33;;;;;;;21.27;17.10;;;2.20;1.00;;;;;;5116666;28;20451;-42
2024/01/17 08:46:02;;;;;;;21.20;15.87;;;2.20;1.00;;;;;;5115956;28;20799;-42
2024/01/17 08:48:29;;;;;;;25.43;16.30;;;2.20;1.00;;;;;;5116744;28;20890;-40
2024/01/17 08:50:54;;;;;;;9.47;6.37;;;2.30;1.00;;;;;;5115213;28;20422;-43
2024/01/17 08:53:20;;;;;;;18.80;10.23;;;3.40;1.00;;;;;;5115714;28;20826;-45
2024/01/17 08:55:47;;;;;;;29.10;18.83;;;6.60;2.10;;;;;;5097958;28;20190;-46
2024/01/17 08:58:13;;;;;;;32.10;23.03;;;8.10;3.80;;;;;;5114919;28;20207;-43
2024/01/17 09:00:38;;;;;;;20.70;18.50;;;7.60;1.00;;;;;;5116211;28;20433;-44
2024/01/17 09:03:10;;;;;;;20.10;15.50;;;6.50;1.00;;;;;;5133685;27;20552;-41
2024/01/17 09:05:36;;;;;;;16.90;13.13;;;5.70;1.00;;;;;;5134384;27;20497;-41
2024/01/17 09:08:01;;;;;;;13.70;12.23;;;5.10;99.90;;;;;;5134111;27;20416;-43
2024/01/17 09:10:28;;;;;;;17.63;13.90;;;4.60;1.00;;;;;;5135154;27;20175;-42
2024/01/17 09:12:54;;;;;;;17.80;13.77;;;4.30;1.00;;;;;;5134368;27;20453;-42
2024/01/17 09:15:20;;;;;;;17.73;14.40;;;4.00;1.00;;;;;;5134606;27;20404;-43
2024/01/17 09:17:46;;;;;;;16.53;13.43;;;3.90;1.00;;;;;;5133448;27;20388;-42
2024/01/17 09:20:14;;;;;;;17.90;14.17;;;3.70;1.00;;;;;;5133612;27;20421;-43
2024/01/17 09:22:40;;;;;;;15.53;13.50;;;3.50;1.00;;;;;;5115146;27;20217;-42
2024/01/17 09:25:08;;;;;;;20.73;14.87;;;3.40;1.00;;;;;;5134017;27;20834;-42
2024/01/17 09:27:34;;;;;;;16.47;13.30;;;3.30;1.00;;;;;;5133996;28;20493;-40
2024/01/17 09:29:59;;;;;;;15.27;13.67;;;3.20;1.00;;;;;;5114202;28;20511;-41
2024/01/17 09:32:25;;;;;;;14.53;13.03;;;3.30;1.00;;;;;;5133545;28;20546;-42
2024/01/17 09:34:50;;;;;;;16.50;13.07;;;3.20;1.00;;;;;;5132618;27;20196;-42
2024/01/17 09:37:16;;;;;;;19.10;14.33;;;3.20;1.00;;;;;;5114754;28;20251;-44
2024/01/17 09:39:43;;;;;;;16.87;12.57;;;3.30;1.00;;;;;;5133722;27;20175;-40
2024/01/17 09:42:09;;;;;;;17.60;13.97;;;3.40;1.00;;;;;;5134480;27;20731;-42
2024/01/17 09:44:34;;;;;;;14.83;12.37;;;3.40;1.00;;;;;;5115598;27;20507;-42
2024/01/17 09:47:01;;;;;;;15.20;12.00;;;3.50;1.00;;;;;;5131902;27;20491;-42
2024/01/17 09:49:27;;;;;;;13.27;11.60;;;3.50;1.00;;;;;;5112151;28;20167;-41
2024/01/17 09:51:53;;;;;;;14.33;12.40;;;3.60;1.00;;;;;;5130066;27;20413;-40
2024/01/17 09:54:19;;;;;;;14.63;11.63;;;3.60;1.00;;;;;;5131297;27;20879;-43
2024/01/17 09:56:46;;;;;;;15.20;13.13;;;3.60;1.00;;;;;;5115757;27;20185;-45
2024/01/17 09:59:17;;;;;;;15.40;12.30;;;3.60;1.00;;;;;;5132368;27;20243;-45
2024/01/17 10:01:43;;;;;;;14.03;12.63;;;3.60;1.00;;;;;;5134195;27;20511;-42
2024/01/17 10:04:13;;;;;;;14.97;12.40;;;3.60;1.00;;;;;;5134985;27;20508;-41
2024/01/17 10:06:44;;;;;;;15.27;12.80;;;3.50;1.00;;;;;;5114904;28;20664;-42
2024/01/17 10:09:10;;;;;;;16.63;14.40;;;3.50;1.00;;;;;;5131334;27;20429;-42
2024/01/17 10:11:36;;;;;;;19.60;15.43;;;3.50;1.00;;;;;;5133644;27;20527;-42
2024/01/17 10:14:03;;;;;;;15.87;14.00;;;3.50;1.00;;;;;;5104030;28;20515;-43
2024/01/17 10:16:28;;;;;;;17.40;14.43;;;3.50;1.00;;;;;;5118174;28;20179;-41
2024/01/17 10:18:54;;;;;;;19.90;15.57;;;3.40;1.00;;;;;;5100477;28;20475;-43
2024/01/17 10:21:20;;;;;;;21.20;16.03;;;3.40;1.00;;;;;;5100252;28;20279;-42
2024/01/17 10:23:45;;;;;;;14.80;13.20;;;3.40;1.00;;;;;;5101440;28;20440;-42
2024/01/17 10:26:11;;;;;;;16.17;13.50;;;3.40;1.00;;;;;;5118786;28;20389;-42
2024/01/17 10:28:37;;;;;;;16.93;13.70;;;3.50;1.00;;;;;;5101446;28;20176;-42
2024/01/17 10:31:05;;;;;;;13.57;11.73;;;3.50;1.00;;;;;;5119052;28;20432;-43
2024/01/17 10:33:31;;;;;;;14.10;12.40;;;3.50;1.00;;;;;;5117433;28;20172;-41
2024/01/17 10:35:57;;;;;;;13.23;11.93;;;3.40;1.00;;;;;;5100436;28;20453;-42
2024/01/17 10:38:22;;;;;;;15.20;13.60;;;3.40;1.00;;;;;;5117139;28;20515;-44
2024/01/17 10:41:05;;;;;;;12.97;11.40;;;3.30;1.00;;;;;;5117981;28;20176;-43
2024/01/17 10:43:31;;;;;;;17.93;12.63;;;3.40;1.00;;;;;;5117764;28;20293;-42
2024/01/17 10:45:57;;;;;;;13.27;11.87;;;3.40;1.00;;;;;;5114234;28;20409;-41
2024/01/17 10:48:24;;;;;;;13.50;10.90;;;3.40;1.00;;;;;;5099799;28;20460;-42
2024/01/17 10:50:57;;;;;;;13.77;10.50;;;3.40;1.00;;;;;;5117908;28;20171;-43
2024/01/17 10:53:23;;;;;;;12.97;10.20;;;3.40;1.00;;;;;;5118678;28;20519;-43
2024/01/17 10:55:50;;;;;;;11.80;10.13;;;3.40;1.00;;;;;;5117530;28;20472;-41
2024/01/17 10:58:17;;;;;;;12.30;11.00;;;3.40;1.00;;;;;;5117725;28;20433;-44
2024/01/17 11:00:44;;;;;;;11.23;9.20;;;3.50;1.00;;;;;;5118542;28;20410;-43
2024/01/17 11:03:13;;;;;;;10.53;9.43;;;3.60;1.00;;;;;;5101599;28;20887;-43
2024/01/17 11:05:48;;;;;;;10.67;8.87;;;3.70;1.00;;;;;;5098536;28;20461;-43
2024/01/17 11:08:15;;;;;;;9.60;8.60;;;3.70;1.00;;;;;;5083171;28;20467;-43
2024/01/17 11:10:43;;;;;;;11.27;10.10;;;3.80;1.00;;;;;;5100232;28;20429;-43
2024/01/17 11:13:10;;;;;;;9.00;7.87;;;3.90;1.00;;;;;;5116731;28;20743;-45
2024/01/17 11:15:38;;;;;;;10.50;9.10;;;4.00;1.00;;;;;;5099020;28;20417;-42
2024/01/17 11:18:04;;;;;;;9.90;7.90;;;4.20;1.00;;;;;;5100352;28;20433;-44
2024/01/17 11:20:30;;;;;;;10.97;8.80;;;4.30;1.00;;;;;;5083729;28;20455;-42
2024/01/17 11:22:57;;;;;;;9.70;7.83;;;4.40;1.00;;;;;;5118851;28;20461;-42
2024/01/17 11:25:33;;;;;;;7.83;6.97;;;4.40;1.00;;;;;;5099222;28;20184;-48
2024/01/17 11:28:14;;;;;;;6.90;6.00;;;4.40;1.00;;;;;;5118366;28;20404;-43
2024/01/17 11:30:48;;;;;;;7.00;5.67;;;4.50;1.00;;;;;;5118696;28;20409;-42
2024/01/17 11:33:14;;;;;;;5.63;4.93;;;4.50;1.00;;;;;;5099599;28;20455;-43
2024/01/17 11:35:45;;;;;;;5.03;4.43;;;4.60;1.00;;;;;;5117422;28;20465;-48
2024/01/17 11:38:31;;;;;;;4.83;3.40;;;5.50;1.00;;;;;;5117279;28;20209;-45
2024/01/17 11:41:00;;;;;;;3.80;3.50;;;6.20;1.00;;;;;;5101345;28;20481;-43
2024/01/17 11:43:31;;;;;;;3.27;2.50;;;6.00;1.00;;;;;;5117980;28;20441;-43
2024/01/17 11:45:59;;;;;;;4.60;3.20;;;5.90;1.00;;;;;;5117247;28;20422;-45
2024/01/17 11:48:29;;;;;;;3.60;2.90;;;5.90;1.00;;;;;;5118532;28;20506;-42
2024/01/17 11:51:01;;;;;;;3.00;2.60;;;5.90;1.00;;;;;;5117865;28;20437;-42
2024/01/17 11:53:28;;;;;;;4.13;3.03;;;5.90;1.00;;;;;;5101374;28;20433;-42
2024/01/17 11:55:55;;;;;;;3.37;2.93;;;5.80;1.00;;;;;;5118027;28;20421;-43
2024/01/17 11:58:22;;;;;;;3.87;2.70;;;5.70;1.00;;;;;;5117293;28;20444;-43
2024/01/17 12:00:51;;;;;;;3.03;2.50;;;5.70;1.00;;;;;;5117648;28;20405;-42
2024/01/17 12:03:30;;;;;;;6.87;2.93;;;5.80;1.00;;;;;;5117388;28;20957;-43
2024/01/17 12:05:56;;;;;;;5.30;2.87;;;5.70;1.00;;;;;;5099529;28;20471;-43
2024/01/17 12:08:23;;;;;;;5.73;3.33;;;5.70;1.00;;;;;;5097233;28;20873;-42
2024/01/17 12:10:56;;;;;;;3.63;3.27;;;5.70;1.00;;;;;;5081828;28;20282;-43
2024/01/17 12:13:23;;;;;;;3.17;2.87;;;5.70;1.00;;;;;;5114413;28;20941;-42
2024/01/17 12:15:54;;;;;;;3.50;2.97;;;5.80;1.00;;;;;;5093706;28;20487;-43
2024/01/17 12:18:24;;;;;;;3.27;2.90;;;5.70;1.00;;;;;;5114353;28;20880;-41
2024/01/17 12:20:51;;;;;;;3.30;3.00;;;5.70;1.00;;;;;;5112886;28;20554;-41
2024/01/17 12:23:27;;;;;;;3.80;3.10;;;5.70;1.00;;;;;;5098417;28;20455;-43
2024/01/17 12:25:53;;;;;;;3.40;2.83;;;5.60;1.00;;;;;;5114123;28;20422;-43
2024/01/17 12:28:28;;;;;;;3.60;3.17;;;5.60;1.00;;;;;;5094396;28;20430;-44
2024/01/17 12:31:06;;;;;;;3.77;3.00;;;5.60;1.00;;;;;;5114520;28;20899;-46
2024/01/17 12:33:37;;;;;;;5.17;3.30;;;5.60;1.00;;;;;;5114916;28;20489;-41
2024/01/17 12:36:05;;;;;;;3.10;2.77;;;5.70;1.00;;;;;;5113345;28;20433;-41
2024/01/17 12:38:33;;;;;;;2.93;2.63;;;5.80;1.00;;;;;;5116650;28;20516;-45